Time;durP1;ratioP1;P1;durP2;ratioP2;P2;SDS_P1;SDS_P2;PMS_P1;PMS_P2;Temp;Humidity;BMP_temperature;BMP_pressure;BME280_temperature;BME280_humidity;BME280_pressure;Samples;Min_cycle;Max_cycle;Signal;HPM_P1;HPM_P2
2024/01/20 00:01:26;;;;;;;9.23;5.38;;;-2.50;99.90;;;;;;5072325;28;20236;-78
2024/01/20 00:03:53;;;;;;;11.85;5.68;;;-2.50;99.90;;;;;;5071652;28;20204;-78
2024/01/20 00:06:19;;;;;;;10.55;5.38;;;-2.40;99.90;;;;;;5072909;28;20200;-78
2024/01/20 00:08:46;;;;;;;5.30;4.45;;;-2.40;99.90;;;;;;5071784;28;20212;-78
2024/01/20 00:11:14;;;;;;;6.97;4.60;;;-2.40;99.90;;;;;;5072198;28;20200;-78
2024/01/20 00:13:41;;;;;;;14.00;4.80;;;-2.50;99.90;;;;;;5071994;28;20205;-78
2024/01/20 00:16:08;;;;;;;6.85;5.35;;;-2.50;99.90;;;;;;5071729;28;20226;-78
2024/01/20 00:18:35;;;;;;;7.55;4.80;;;-2.60;99.90;;;;;;5072325;28;20303;-78
2024/01/20 00:21:01;;;;;;;4.75;3.58;;;-2.60;99.90;;;;;;5059820;28;20700;-78
2024/01/20 00:23:28;;;;;;;10.48;5.53;;;-2.50;99.90;;;;;;5070038;28;20235;-78
2024/01/20 00:25:55;;;;;;;8.05;4.70;;;-2.50;99.90;;;;;;5075954;28;20622;-78
2024/01/20 00:28:23;;;;;;;5.05;3.95;;;-2.50;99.90;;;;;;5076107;28;20575;-78
2024/01/20 00:30:49;;;;;;;9.30;6.32;;;-2.50;99.90;;;;;;5074858;28;20200;-78
2024/01/20 00:33:16;;;;;;;8.20;5.18;;;-2.50;99.90;;;;;;5075081;28;20235;-78
2024/01/20 00:35:44;;;;;;;5.45;4.38;;;-2.60;99.90;;;;;;5074639;28;20705;-77
2024/01/20 00:38:11;;;;;;;9.48;5.97;;;-2.60;99.90;;;;;;5075098;28;20220;-78
2024/01/20 00:40:38;;;;;;;7.30;4.20;;;-2.70;99.90;;;;;;5075107;28;20208;-78
2024/01/20 00:43:05;;;;;;;7.35;4.65;;;-2.70;99.90;;;;;;5075108;28;20224;-78
2024/01/20 00:45:33;;;;;;;14.70;7.10;;;-2.70;99.90;;;;;;5075235;28;20197;-78
2024/01/20 00:47:59;;;;;;;6.55;3.92;;;-2.70;99.90;;;;;;5075227;28;20200;-78
2024/01/20 00:50:26;;;;;;;20.63;7.00;;;-2.70;99.90;;;;;;5075586;28;20235;-78
2024/01/20 00:52:53;;;;;;;8.88;5.05;;;-2.60;99.90;;;;;;5075380;28;20228;-78
2024/01/20 00:55:19;;;;;;;9.18;5.57;;;-2.60;99.90;;;;;;5081727;28;20232;-78
2024/01/20 00:57:46;;;;;;;6.47;5.80;;;-2.60;99.90;;;;;;5082331;28;20602;-77
2024/01/20 01:00:13;;;;;;;15.88;5.85;;;-2.60;99.90;;;;;;5080359;28;20205;-78
2024/01/20 01:02:42;;;;;;;9.02;5.20;;;-2.60;99.90;;;;;;5074930;28;20759;-78
2024/01/20 01:05:09;;;;;;;5.80;4.68;;;-2.50;99.90;;;;;;5073213;28;20203;-78
2024/01/20 01:07:37;;;;;;;10.27;4.97;;;-2.50;99.90;;;;;;5074955;28;20212;-78
2024/01/20 01:10:06;;;;;;;5.75;4.35;;;-2.60;99.90;;;;;;5074658;28;20205;-78
2024/01/20 01:12:33;;;;;;;14.93;6.28;;;-2.70;99.90;;;;;;5074645;28;20709;-78
2024/01/20 01:15:01;;;;;;;8.48;4.20;;;-2.70;99.90;;;;;;5073906;28;20224;-78
2024/01/20 01:17:27;;;;;;;5.10;4.60;;;-2.80;99.90;;;;;;5074762;28;20262;-79
2024/01/20 01:19:55;;;;;;;13.15;5.05;;;-2.90;99.90;;;;;;5074346;28;20598;-78
2024/01/20 01:22:23;;;;;;;4.40;4.00;;;-2.90;99.90;;;;;;5068867;28;20227;-78
2024/01/20 01:24:50;;;;;;;8.75;5.22;;;-2.90;99.90;;;;;;5073757;28;20258;-78
2024/01/20 01:27:17;;;;;;;7.22;5.82;;;-2.90;99.90;;;;;;5074896;28;20231;-78
2024/01/20 01:29:44;;;;;;;7.85;5.00;;;-3.00;99.90;;;;;;5074282;28;20835;-78
2024/01/20 01:32:10;;;;;;;5.47;4.07;;;-3.00;99.90;;;;;;5074042;28;20228;-78
2024/01/20 01:34:37;;;;;;;8.20;4.28;;;-3.00;99.90;;;;;;5075282;28;20208;-79
2024/01/20 01:37:05;;;;;;;15.00;4.68;;;-3.10;99.90;;;;;;5075756;28;20208;-79
2024/01/20 01:39:32;;;;;;;4.53;3.60;;;-3.10;99.90;;;;;;5076066;28;20204;-79
2024/01/20 01:41:59;;;;;;;6.97;4.07;;;-3.20;99.90;;;;;;5075213;28;20240;-78
2024/01/20 01:44:25;;;;;;;8.77;4.80;;;-3.30;99.90;;;;;;5075810;28;20222;-79
2024/01/20 01:46:53;;;;;;;7.97;6.97;;;-3.30;99.90;;;;;;5075419;28;20209;-79
2024/01/20 01:49:20;;;;;;;7.70;4.05;;;-3.30;99.90;;;;;;5075451;28;20204;-79
2024/01/20 01:51:47;;;;;;;8.27;4.30;;;-3.30;99.90;;;;;;5075615;28;20236;-79
2024/01/20 01:54:16;;;;;;;11.70;4.72;;;-3.40;99.90;;;;;;5075174;28;20204;-79
2024/01/20 01:56:44;;;;;;;6.82;6.15;;;-3.30;99.90;;;;;;5075566;28;20228;-79
2024/01/20 01:59:11;;;;;;;5.68;3.30;;;-3.40;99.90;;;;;;5074972;28;20684;-79
2024/01/20 02:01:37;;;;;;;8.63;5.82;;;-3.40;99.90;;;;;;5075421;28;20225;-79
2024/01/20 02:04:04;;;;;;;15.13;4.85;;;-3.50;99.90;;;;;;5074893;28;20662;-79
2024/01/20 02:06:32;;;;;;;8.55;4.05;;;-3.50;99.90;;;;;;5075628;28;20211;-79
2024/01/20 02:09:00;;;;;;;4.18;3.70;;;-3.50;99.90;;;;;;5075082;28;20215;-79
2024/01/20 02:11:28;;;;;;;7.95;3.92;;;-3.50;99.90;;;;;;5075456;28;20204;-78
2024/01/20 02:13:55;;;;;;;5.80;3.53;;;-3.60;99.90;;;;;;5074924;28;20204;-78
2024/01/20 02:16:22;;;;;;;10.32;3.20;;;-3.60;99.90;;;;;;5073185;28;20620;-78
2024/01/20 02:18:48;;;;;;;3.42;3.10;;;-3.60;99.90;;;;;;5073487;28;20216;-78
2024/01/20 02:21:15;;;;;;;4.45;3.20;;;-3.70;99.90;;;;;;5073837;28;20211;-78
2024/01/20 02:23:47;;;;;;;6.07;4.10;;;-3.70;99.90;;;;;;5075450;28;20214;-79
2024/01/20 02:26:14;;;;;;;9.82;4.22;;;-3.80;99.90;;;;;;5074949;28;20232;-78
2024/01/20 02:28:40;;;;;;;4.32;4.03;;;-3.80;99.90;;;;;;5075137;28;20215;-79
2024/01/20 02:31:07;;;;;;;3.25;2.80;;;-3.70;99.90;;;;;;5074261;28;20299;-79
2024/01/20 02:33:34;;;;;;;6.00;4.57;;;-3.70;99.90;;;;;;5074323;28;20744;-79
2024/01/20 02:36:00;;;;;;;5.97;4.88;;;-3.60;99.90;;;;;;5073971;28;20225;-78
2024/01/20 02:38:27;;;;;;;9.68;4.63;;;-3.60;99.90;;;;;;5074575;28;20201;-79
2024/01/20 02:40:56;;;;;;;8.48;5.47;;;-3.60;99.90;;;;;;5074261;28;20571;-79
2024/01/20 02:43:22;;;;;;;6.30;5.65;;;-3.60;99.90;;;;;;5074179;28;20220;-79
2024/01/20 02:45:49;;;;;;;12.05;6.53;;;-3.60;99.90;;;;;;5073697;28;20680;-79
2024/01/20 02:48:16;;;;;;;4.15;3.53;;;-3.60;99.90;;;;;;5073699;28;20201;-79
2024/01/20 02:50:42;;;;;;;5.60;3.30;;;-3.70;99.90;;;;;;5074490;28;20196;-79
2024/01/20 02:53:09;;;;;;;8.82;4.63;;;-3.60;99.90;;;;;;5074094;28;20231;-79
2024/01/20 02:55:36;;;;;;;5.65;3.70;;;-3.60;99.90;;;;;;5074389;28;20289;-79
2024/01/20 02:58:04;;;;;;;7.80;4.55;;;-3.60;99.90;;;;;;5073788;28;20200;-79
2024/01/20 03:00:31;;;;;;;6.88;5.82;;;-3.70;99.90;;;;;;5074820;28;20220;-79
2024/01/20 03:02:58;;;;;;;8.73;5.65;;;-3.70;99.90;;;;;;5073718;28;20220;-79
2024/01/20 03:05:24;;;;;;;11.63;5.88;;;-3.70;99.90;;;;;;5066711;28;20201;-79
2024/01/20 03:07:51;;;;;;;5.72;4.07;;;-3.60;99.90;;;;;;5074480;28;20204;-79
2024/01/20 03:10:18;;;;;;;6.70;4.93;;;-3.70;99.90;;;;;;5073818;28;20212;-79
2024/01/20 03:12:44;;;;;;;5.95;5.03;;;-3.70;99.90;;;;;;5074468;28;20224;-79
2024/01/20 03:15:12;;;;;;;13.75;5.40;;;-3.60;99.90;;;;;;5063967;28;20674;-79
2024/01/20 03:17:39;;;;;;;6.57;4.68;;;-3.50;99.90;;;;;;5054656;28;20202;-78
2024/01/20 03:20:08;;;;;;;9.02;4.28;;;-3.50;99.90;;;;;;5054978;28;20228;-79
2024/01/20 03:22:35;;;;;;;6.00;4.45;;;-3.50;99.90;;;;;;5054510;28;20244;-79
2024/01/20 03:25:02;;;;;;;7.55;3.97;;;-3.50;99.90;;;;;;5059976;28;20200;-78
2024/01/20 03:27:28;;;;;;;5.43;3.75;;;-3.50;99.90;;;;;;5061866;28;20292;-78
2024/01/20 03:29:55;;;;;;;11.07;6.38;;;-3.60;99.90;;;;;;5061697;28;20201;-78
2024/01/20 03:32:23;;;;;;;5.13;3.90;;;-3.60;99.90;;;;;;5062185;28;20225;-78
2024/01/20 03:34:50;;;;;;;9.13;4.85;;;-3.50;99.90;;;;;;5061515;28;20211;-78
2024/01/20 03:37:17;;;;;;;8.32;3.35;;;-3.50;99.90;;;;;;5062324;28;20799;-78
2024/01/20 03:39:43;;;;;;;4.88;3.22;;;-3.50;99.90;;;;;;5057939;28;20201;-78
2024/01/20 03:42:10;;;;;;;5.05;2.72;;;-3.60;99.90;;;;;;5053660;28;20236;-78
2024/01/20 03:44:37;;;;;;;5.18;3.45;;;-3.60;99.90;;;;;;5053457;28;20201;-79
2024/01/20 03:47:04;;;;;;;8.68;3.95;;;-3.70;99.90;;;;;;5053498;28;20208;-79
2024/01/20 03:49:32;;;;;;;5.32;4.78;;;-3.70;99.90;;;;;;5053465;28;20209;-78
2024/01/20 03:51:58;;;;;;;12.38;6.15;;;-3.70;99.90;;;;;;5053051;28;20217;-79
2024/01/20 03:54:25;;;;;;;11.48;4.95;;;-3.70;99.90;;;;;;5052882;28;20205;-79
2024/01/20 03:56:52;;;;;;;7.28;5.07;;;-3.80;99.90;;;;;;5052741;28;20217;-79
2024/01/20 03:59:18;;;;;;;4.82;3.45;;;-3.80;99.90;;;;;;5051614;28;20573;-78
2024/01/20 04:01:45;;;;;;;11.25;4.30;;;-3.80;99.90;;;;;;5066782;28;20228;-78
2024/01/20 04:04:12;;;;;;;4.55;3.10;;;-3.70;99.90;;;;;;5071093;28;20216;-78
2024/01/20 04:06:40;;;;;;;5.15;3.67;;;-3.70;99.90;;;;;;5071843;28;20692;-79
2024/01/20 04:09:07;;;;;;;12.05;5.03;;;-3.70;99.90;;;;;;5070967;28;20578;-79
2024/01/20 04:11:33;;;;;;;10.65;4.05;;;-3.70;99.90;;;;;;5071909;28;20212;-79
2024/01/20 04:14:00;;;;;;;8.85;5.22;;;-3.70;99.90;;;;;;5071091;28;20205;-79
2024/01/20 04:16:27;;;;;;;4.78;3.65;;;-3.70;99.90;;;;;;5071996;28;20227;-79
2024/01/20 04:18:54;;;;;;;5.65;2.95;;;-3.70;99.90;;;;;;5071565;28;20208;-79
2024/01/20 04:21:20;;;;;;;8.75;5.63;;;-3.80;99.90;;;;;;5071656;28;20215;-79
2024/01/20 04:23:49;;;;;;;4.18;3.88;;;-3.80;99.90;;;;;;5071995;28;20677;-79
2024/01/20 04:26:16;;;;;;;5.53;4.05;;;-3.80;99.90;;;;;;5071947;28;20200;-79
2024/01/20 04:28:43;;;;;;;6.35;5.72;;;-3.90;99.90;;;;;;5073239;28;20581;-80
2024/01/20 04:31:10;;;;;;;5.57;3.90;;;-3.80;99.90;;;;;;5072055;28;20208;-79
2024/01/20 04:33:39;;;;;;;4.85;4.30;;;-3.80;99.90;;;;;;5072309;28;20705;-79
2024/01/20 04:36:06;;;;;;;4.15;3.72;;;-3.70;99.90;;;;;;5072520;28;20259;-80
2024/01/20 04:38:33;;;;;;;4.93;4.38;;;-3.70;99.90;;;;;;5071727;28;20200;-79
2024/01/20 04:41:01;;;;;;;5.72;5.15;;;-3.60;99.90;;;;;;5070827;28;20283;-80
2024/01/20 04:43:28;;;;;;;4.05;3.70;;;-3.60;99.90;;;;;;5064821;28;20224;-80
2024/01/20 04:45:55;;;;;;;5.30;4.32;;;-3.60;99.90;;;;;;5072903;28;20200;-79
2024/01/20 04:48:22;;;;;;;6.70;4.22;;;-3.60;99.90;;;;;;5071340;28;20457;-79
2024/01/20 04:50:48;;;;;;;8.00;6.15;;;-3.60;99.90;;;;;;5072163;28;20207;-80
2024/01/20 04:53:15;;;;;;;6.90;5.18;;;-3.60;99.90;;;;;;5071008;28;20230;-79
2024/01/20 04:55:42;;;;;;;3.92;3.10;;;-3.70;99.90;;;;;;5072404;28;20201;-79
2024/01/20 04:58:10;;;;;;;9.02;4.13;;;-3.70;99.90;;;;;;5073610;28;20201;-79
2024/01/20 05:00:36;;;;;;;4.75;4.35;;;-3.70;99.90;;;;;;5079839;28;20204;-79
2024/01/20 05:03:04;;;;;;;4.47;3.80;;;-3.80;99.90;;;;;;5079015;28;20242;-78
2024/01/20 05:05:30;;;;;;;7.47;5.07;;;-3.90;99.90;;;;;;5069424;28;20204;-79
2024/01/20 05:07:57;;;;;;;16.33;4.85;;;-4.00;99.90;;;;;;5072271;28;20192;-79
2024/01/20 05:10:24;;;;;;;3.90;3.60;;;-4.00;99.90;;;;;;5076118;28;20588;-80
2024/01/20 05:12:51;;;;;;;10.32;5.35;;;-4.00;99.90;;;;;;5082283;28;20224;-79
2024/01/20 05:15:19;;;;;;;5.55;4.32;;;-4.00;99.90;;;;;;5086284;28;20295;-79
2024/01/20 05:17:45;;;;;;;4.93;3.58;;;-3.90;99.90;;;;;;5087524;28;20213;-79
2024/01/20 05:20:14;;;;;;;7.30;5.40;;;-3.80;99.90;;;;;;5086349;28;20212;-79
2024/01/20 05:22:41;;;;;;;3.65;3.38;;;-3.80;99.90;;;;;;5087646;28;20282;-79
2024/01/20 05:25:09;;;;;;;3.85;3.50;;;-3.80;99.90;;;;;;5082454;28;20234;-80
2024/01/20 05:27:36;;;;;;;3.20;3.00;;;-3.80;99.90;;;;;;5077006;28;20204;-79
2024/01/20 05:30:02;;;;;;;5.15;3.92;;;-3.90;99.90;;;;;;5076548;28;20205;-80
2024/01/20 05:32:30;;;;;;;7.03;4.45;;;-4.00;99.90;;;;;;5076479;28;20220;-80
2024/01/20 05:34:57;;;;;;;5.80;4.45;;;-4.00;99.90;;;;;;5077211;28;20204;-80
2024/01/20 05:37:24;;;;;;;5.82;4.32;;;-4.10;99.90;;;;;;5075347;28;20227;-80
2024/01/20 05:39:51;;;;;;;9.75;5.47;;;-4.10;99.90;;;;;;5076700;28;20263;-80
2024/01/20 05:42:18;;;;;;;4.72;4.05;;;-4.20;99.90;;;;;;5076677;28;20613;-80
2024/01/20 05:44:44;;;;;;;8.15;4.22;;;-4.20;99.90;;;;;;5075209;28;20200;-79
2024/01/20 05:47:11;;;;;;;6.07;4.78;;;-4.30;99.90;;;;;;5074373;28;20213;-79
2024/01/20 05:49:39;;;;;;;8.50;4.43;;;-4.20;99.90;;;;;;5075497;28;20207;-79
2024/01/20 05:52:06;;;;;;;10.05;5.22;;;-4.30;99.90;;;;;;5074955;28;20220;-80
2024/01/20 05:54:33;;;;;;;7.95;4.75;;;-4.30;99.90;;;;;;5075052;28;20218;-80
2024/01/20 05:57:00;;;;;;;5.32;4.13;;;-4.20;99.90;;;;;;5076362;28;20239;-79
2024/01/20 05:59:26;;;;;;;7.80;6.95;;;-4.20;99.90;;;;;;5076191;28;20204;-79
2024/01/20 06:01:53;;;;;;;12.38;5.32;;;-4.10;99.90;;;;;;5076475;28;20232;-79
2024/01/20 06:04:20;;;;;;;4.72;3.17;;;-4.20;99.90;;;;;;5075660;28;20209;-80
2024/01/20 06:06:49;;;;;;;5.20;4.72;;;-4.20;99.90;;;;;;5076169;28;20661;-80
2024/01/20 06:09:16;;;;;;;4.68;3.97;;;-4.20;99.90;;;;;;5075651;28;20200;-80
2024/01/20 06:11:43;;;;;;;9.32;4.07;;;-4.30;99.90;;;;;;5076116;28;20740;-80
2024/01/20 06:14:10;;;;;;;10.85;4.85;;;-4.40;99.90;;;;;;5075296;28;20204;-79
2024/01/20 06:16:38;;;;;;;8.75;4.15;;;-4.50;99.90;;;;;;5069531;28;20224;-80
2024/01/20 06:19:05;;;;;;;5.60;4.57;;;-4.60;99.90;;;;;;5075698;28;20227;-80
2024/01/20 06:21:32;;;;;;;7.32;3.92;;;-4.60;99.90;;;;;;5074728;28;20216;-80
2024/01/20 06:24:00;;;;;;;3.08;2.47;;;-4.60;99.90;;;;;;5075692;28;20234;-80
2024/01/20 06:26:27;;;;;;;4.10;3.50;;;-4.70;99.90;;;;;;5075468;28;20207;-80
2024/01/20 06:28:54;;;;;;;3.90;3.60;;;-4.70;99.90;;;;;;5076594;28;20201;-79
2024/01/20 06:31:24;;;;;;;4.68;4.22;;;-4.70;99.90;;;;;;5075784;28;20208;-80
2024/01/20 06:33:51;;;;;;;4.28;3.60;;;-4.60;99.90;;;;;;5075716;28;20200;-80
2024/01/20 06:36:18;;;;;;;5.88;3.75;;;-4.60;99.90;;;;;;5075361;28;21185;-80
2024/01/20 06:38:45;;;;;;;3.30;2.88;;;-4.60;99.90;;;;;;5075479;28;20205;-79
2024/01/20 06:41:13;;;;;;;5.03;4.53;;;-4.60;99.90;;;;;;5075696;28;20200;-80
2024/01/20 06:43:39;;;;;;;7.72;5.55;;;-4.50;99.90;;;;;;5072923;28;20216;-80
2024/01/20 06:46:07;;;;;;;6.70;5.18;;;-4.50;99.90;;;;;;5072336;28;20685;-80
2024/01/20 06:48:34;;;;;;;8.20;7.28;;;-4.50;99.90;;;;;;5070243;28;20754;-80
2024/01/20 06:51:00;;;;;;;4.53;4.20;;;-4.50;99.90;;;;;;5075274;28;20200;-79
2024/01/20 06:53:27;;;;;;;6.25;4.50;;;-4.50;99.90;;;;;;5074447;28;20224;-80
2024/01/20 06:55:54;;;;;;;3.83;2.83;;;-4.50;99.90;;;;;;5075214;28;20208;-80
2024/01/20 06:58:23;;;;;;;6.57;4.00;;;-4.60;99.90;;;;;;5074594;28;20601;-80
2024/01/20 07:00:50;;;;;;;7.43;4.47;;;-4.60;99.90;;;;;;5075275;28;20204;-79
2024/01/20 07:03:17;;;;;;;6.45;5.47;;;-4.60;99.90;;;;;;5074011;28;20224;-79
2024/01/20 07:05:44;;;;;;;4.80;3.97;;;-4.50;99.90;;;;;;5074774;28;20200;-79
2024/01/20 07:08:11;;;;;;;9.18;4.80;;;-4.60;99.90;;;;;;5074872;28;20665;-79
2024/01/20 07:10:38;;;;;;;2.95;2.75;;;-4.50;99.90;;;;;;5074976;28;20211;-80
2024/01/20 07:13:05;;;;;;;7.63;5.00;;;-4.50;99.90;;;;;;5075121;28;20227;-79
2024/01/20 07:15:33;;;;;;;5.88;3.72;;;-4.40;99.90;;;;;;5073964;28;20610;-79
2024/01/20 07:17:59;;;;;;;6.35;4.60;;;-4.40;99.90;;;;;;5074922;28;20213;-79
2024/01/20 07:20:26;;;;;;;7.07;4.45;;;-4.40;99.90;;;;;;5071715;28;20663;-79
2024/01/20 07:22:53;;;;;;;3.45;2.80;;;-4.40;99.90;;;;;;5069689;28;20247;-80
2024/01/20 07:25:20;;;;;;;5.00;4.50;;;-4.40;99.90;;;;;;5066572;28;20212;-79
2024/01/20 07:27:46;;;;;;;5.10;3.72;;;-4.50;99.90;;;;;;5071973;28;20235;-79
2024/01/20 07:30:14;;;;;;;4.55;3.60;;;-4.50;99.90;;;;;;5074777;28;20208;-79
2024/01/20 07:32:42;;;;;;;2.92;2.72;;;-4.50;99.90;;;;;;5072011;28;20595;-79
2024/01/20 07:35:09;;;;;;;4.70;3.13;;;-4.60;99.90;;;;;;5072390;28;20200;-79
2024/01/20 07:37:37;;;;;;;3.55;3.33;;;-4.60;99.90;;;;;;5072486;28;20609;-79
2024/01/20 07:40:04;;;;;;;11.73;4.68;;;-4.50;99.90;;;;;;5066809;28;20200;-79
2024/01/20 07:42:32;;;;;;;6.93;5.07;;;-4.50;99.90;;;;;;5065791;28;20743;-79
2024/01/20 07:44:59;;;;;;;7.30;4.65;;;-4.30;99.90;;;;;;5067709;28;20591;-77
2024/01/20 07:47:26;;;;;;;11.00;7.15;;;-4.30;99.90;;;;;;5071659;28;20211;-79
2024/01/20 07:49:54;;;;;;;8.93;4.97;;;-4.20;99.90;;;;;;5075996;28;20381;-79
2024/01/20 07:52:21;;;;;;;5.15;4.25;;;-4.10;99.90;;;;;;5075813;28;20235;-79
2024/01/20 07:54:48;;;;;;;8.02;4.80;;;-4.10;99.90;;;;;;5075479;28;20219;-79
2024/01/20 07:57:15;;;;;;;4.90;4.50;;;-4.00;99.90;;;;;;5073790;28;20220;-79
2024/01/20 07:59:41;;;;;;;7.15;5.90;;;-4.00;99.90;;;;;;5071472;28;20213;-79
2024/01/20 08:02:08;;;;;;;4.78;3.92;;;-4.00;99.90;;;;;;5070739;28;20220;-79
2024/01/20 08:04:35;;;;;;;4.22;3.70;;;-4.00;99.90;;;;;;5069797;28;20196;-76
2024/01/20 08:07:03;;;;;;;10.77;4.30;;;-4.00;99.90;;;;;;5069569;28;20196;-76
2024/01/20 08:09:30;;;;;;;6.68;4.55;;;-4.00;99.90;;;;;;5069937;28;20330;-79
2024/01/20 08:11:57;;;;;;;5.97;3.45;;;-3.90;99.90;;;;;;5063939;28;20235;-79
2024/01/20 08:14:23;;;;;;;5.53;4.07;;;-3.90;99.90;;;;;;5064726;28;20498;-79
2024/01/20 08:16:50;;;;;;;6.97;4.95;;;-4.10;99.90;;;;;;5070947;28;20212;-79
2024/01/20 08:19:17;;;;;;;6.38;5.78;;;-4.10;99.90;;;;;;5070275;28;20204;-77
2024/01/20 08:21:44;;;;;;;5.82;3.45;;;-4.10;99.90;;;;;;5069678;28;20232;-78
2024/01/20 08:24:12;;;;;;;18.48;3.75;;;-4.20;99.90;;;;;;5069107;28;20275;-77
2024/01/20 08:26:38;;;;;;;6.88;3.95;;;-4.10;99.90;;;;;;5069697;28;20208;-77
2024/01/20 08:29:05;;;;;;;5.35;4.85;;;-4.00;99.90;;;;;;5069513;28;20200;-77
2024/01/20 08:31:32;;;;;;;9.88;5.05;;;-3.90;99.90;;;;;;5062161;28;20698;-77
2024/01/20 08:33:59;;;;;;;9.55;5.85;;;-4.00;99.90;;;;;;5065715;28;20236;-76
2024/01/20 08:36:25;;;;;;;8.20;3.92;;;-3.90;99.90;;;;;;5058660;28;20215;-77
2024/01/20 08:38:52;;;;;;;4.28;3.88;;;-3.80;99.90;;;;;;5062120;28;20223;-77
2024/01/20 08:41:20;;;;;;;9.18;4.10;;;-3.70;99.90;;;;;;5065677;28;20213;-76
2024/01/20 08:43:47;;;;;;;3.95;3.55;;;-3.50;99.90;;;;;;5070188;28;20196;-77
2024/01/20 08:46:14;;;;;;;7.68;4.47;;;-3.40;99.90;;;;;;5072615;28;20627;-77
2024/01/20 08:48:41;;;;;;;8.63;4.30;;;-3.50;99.90;;;;;;5072149;28;20200;-77
2024/01/20 08:51:08;;;;;;;5.00;4.47;;;-3.80;99.90;;;;;;5073348;28;20200;-78
2024/01/20 08:53:35;;;;;;;5.63;3.47;;;-3.90;99.90;;;;;;5066708;28;20233;-77
2024/01/20 08:56:03;;;;;;;6.32;4.68;;;-3.80;99.90;;;;;;5065200;28;20208;-77
2024/01/20 08:58:31;;;;;;;5.20;3.75;;;-3.70;99.90;;;;;;5062766;28;20302;-76
2024/01/20 09:00:58;;;;;;;6.15;4.70;;;-3.60;99.90;;;;;;5064721;28;20583;-77
2024/01/20 09:03:25;;;;;;;9.55;5.57;;;-3.50;99.90;;;;;;5075930;22;20245;-77
2024/01/20 09:05:52;;;;;;;14.48;6.82;;;-3.30;99.90;;;;;;5045192;28;20194;-77
2024/01/20 09:08:18;;;;;;;7.25;3.83;;;-3.00;99.90;;;;;;5047975;28;20294;-77
2024/01/20 09:10:45;;;;;;;6.70;4.88;;;-2.90;99.90;;;;;;5042859;28;20208;-78
2024/01/20 09:13:12;;;;;;;11.98;7.18;;;-2.70;99.90;;;;;;5080063;22;20243;-79
2024/01/20 09:15:40;;;;;;;7.45;6.72;;;-2.60;99.90;;;;;;5067240;28;20212;-76
2024/01/20 09:18:08;;;;;;;11.43;5.82;;;-2.60;99.90;;;;;;5067049;28;20220;-78
2024/01/20 09:20:35;;;;;;;9.77;5.55;;;-2.50;99.90;;;;;;5068238;28;20220;-77
2024/01/20 09:23:02;;;;;;;8.43;4.75;;;-2.40;99.90;;;;;;5052564;28;20312;-77
2024/01/20 09:25:28;;;;;;;10.35;5.35;;;-2.60;99.90;;;;;;5048931;28;20201;-76
2024/01/20 09:27:55;;;;;;;8.98;5.82;;;-2.60;99.90;;;;;;5041358;28;20293;-77
2024/01/20 09:30:22;;;;;;;3.83;3.42;;;-2.60;99.90;;;;;;5043879;28;20220;-77
2024/01/20 09:32:50;;;;;;;12.30;5.68;;;-2.70;99.90;;;;;;5045507;28;20263;-76
2024/01/20 09:35:17;;;;;;;8.40;5.85;;;-2.60;99.90;;;;;;5043311;28;20217;-77
2024/01/20 09:37:43;;;;;;;9.70;6.75;;;-2.70;99.90;;;;;;5041983;28;20725;-76
2024/01/20 09:40:11;;;;;;;11.02;6.40;;;-2.60;99.90;;;;;;5042740;28;20587;-75
2024/01/20 09:42:38;;;;;;;9.52;4.68;;;-2.10;99.90;;;;;;5043495;28;20596;-76
2024/01/20 09:45:06;;;;;;;7.45;5.15;;;-1.50;99.90;;;;;;5043027;28;20626;-76
2024/01/20 09:47:34;;;;;;;4.55;4.15;;;-0.20;99.90;;;;;;5045586;28;20208;-76
2024/01/20 09:50:04;;;;;;;8.55;5.07;;;1.40;99.90;;;;;;5043168;28;20231;-75
2024/01/20 09:52:31;;;;;;;8.15;6.18;;;3.60;99.90;;;;;;5046300;28;20235;-75
2024/01/20 09:55:07;;;;;;;7.60;5.85;;;5.90;99.90;;;;;;5045826;28;20202;-75
2024/01/20 09:57:36;;;;;;;12.77;7.97;;;7.30;99.90;;;;;;5042482;28;20243;-76
2024/01/20 10:00:04;;;;;;;9.88;6.40;;;8.80;99.60;;;;;;5043062;28;20198;-76
2024/01/20 10:02:33;;;;;;;8.70;6.00;;;9.40;98.40;;;;;;5046261;28;20606;-77
2024/01/20 10:05:05;;;;;;;11.25;7.35;;;10.60;95.90;;;;;;5043666;28;20207;-76
2024/01/20 10:07:33;;;;;;;11.48;8.40;;;10.50;94.30;;;;;;5046929;28;20207;-76
2024/01/20 10:09:59;;;;;;;10.65;6.47;;;11.10;93.30;;;;;;5043578;28;20205;-77
2024/01/20 10:12:26;;;;;;;10.43;7.68;;;11.50;93.90;;;;;;5047220;28;20236;-77
2024/01/20 10:14:53;;;;;;;9.30;6.35;;;12.40;92.00;;;;;;5044335;28;20212;-76
2024/01/20 10:17:20;;;;;;;10.15;7.47;;;12.40;91.80;;;;;;5046907;28;20205;-76
2024/01/20 10:19:47;;;;;;;11.65;7.88;;;13.40;91.30;;;;;;5046666;28;20212;-77
2024/01/20 10:22:15;;;;;;;8.88;6.97;;;14.40;90.90;;;;;;5047215;28;20239;-76
2024/01/20 10:24:48;;;;;;;10.45;8.00;;;14.40;87.00;;;;;;5051519;28;20215;-77
2024/01/20 10:27:18;;;;;;;10.50;7.23;;;15.00;85.00;;;;;;5045694;28;20211;-77
2024/01/20 10:29:46;;;;;;;9.32;7.45;;;14.40;86.00;;;;;;5045308;28;20463;-76
2024/01/20 10:32:13;;;;;;;10.57;7.70;;;15.10;85.10;;;;;;5045178;28;20306;-76
2024/01/20 10:34:40;;;;;;;9.07;7.23;;;15.60;83.50;;;;;;5045717;28;20465;-77
2024/01/20 10:37:11;;;;;;;11.40;7.03;;;15.90;84.00;;;;;;5044530;28;20468;-77
2024/01/20 10:39:42;;;;;;;8.80;7.53;;;16.80;83.70;;;;;;5046356;28;20220;-77
2024/01/20 10:42:12;;;;;;;9.63;7.30;;;17.20;81.20;;;;;;5044729;28;20488;-76
2024/01/20 10:44:41;;;;;;;10.27;7.33;;;18.10;80.10;;;;;;5046063;28;20539;-77
2024/01/20 10:47:16;;;;;;;11.03;8.50;;;18.90;78.20;;;;;;5044447;28;20460;-77
2024/01/20 10:49:46;;;;;;;9.50;8.50;;;18.80;75.70;;;;;;5046410;28;20455;-77
2024/01/20 10:52:13;;;;;;;11.93;8.40;;;18.40;76.30;;;;;;5046506;28;20484;-77
2024/01/20 10:54:43;;;;;;;10.10;7.90;;;17.90;75.40;;;;;;5047190;28;20471;-77
2024/01/20 10:57:10;;;;;;;9.83;7.97;;;16.40;75.60;;;;;;5045611;28;20486;-77
2024/01/20 10:59:40;;;;;;;12.10;7.20;;;16.40;77.70;;;;;;5047515;28;20493;-77
2024/01/20 11:02:09;;;;;;;9.60;6.90;;;16.40;76.70;;;;;;5045477;28;21008;-77
2024/01/20 11:04:37;;;;;;;9.63;6.90;;;16.70;75.00;;;;;;5048070;28;20474;-77
2024/01/20 11:07:06;;;;;;;8.73;6.23;;;16.20;74.80;;;;;;5063289;28;20460;-76
2024/01/20 11:09:33;;;;;;;8.47;7.43;;;17.20;74.80;;;;;;5043051;28;20463;-77
2024/01/20 11:12:03;;;;;;;10.47;7.93;;;17.40;74.40;;;;;;5047181;28;20492;-77
2024/01/20 11:14:30;;;;;;;7.50;6.63;;;17.50;75.20;;;;;;5049828;28;20463;-77
2024/01/20 11:17:00;;;;;;;10.43;7.30;;;18.00;75.30;;;;;;5045926;28;20462;-79
2024/01/20 11:19:30;;;;;;;8.83;7.47;;;18.90;73.20;;;;;;5045604;28;20992;-77
2024/01/20 11:21:56;;;;;;;9.17;7.40;;;19.00;73.50;;;;;;5045691;28;20480;-77
2024/01/20 11:24:40;;;;;;;9.37;8.27;;;19.00;73.50;;;;;;5047391;28;21178;-77
2024/01/20 11:27:08;;;;;;;8.73;7.10;;;19.10;71.10;;;;;;5047814;28;20543;-77
2024/01/20 11:29:35;;;;;;;8.53;6.83;;;18.80;72.20;;;;;;5047901;28;20478;-77
2024/01/20 11:32:02;;;;;;;10.20;6.67;;;18.90;71.30;;;;;;5044933;28;20485;-76
2024/01/20 11:34:30;;;;;;;9.23;6.90;;;17.80;70.90;;;;;;5047040;28;20463;-76
2024/01/20 11:36:59;;;;;;;11.53;8.10;;;17.80;72.60;;;;;;5045382;28;20547;-76
2024/01/20 11:39:27;;;;;;;11.33;8.03;;;17.00;71.50;;;;;;5041444;28;20553;-76
2024/01/20 11:42:01;;;;;;;11.48;6.65;;;16.20;74.00;;;;;;5048079;28;20514;-77
2024/01/20 11:44:31;;;;;;;9.13;6.57;;;16.00;73.10;;;;;;5041530;28;20212;-77
2024/01/20 11:46:59;;;;;;;9.60;7.30;;;16.20;75.30;;;;;;5045329;28;20470;-76
2024/01/20 11:49:26;;;;;;;9.93;7.50;;;16.30;74.40;;;;;;5043596;28;20504;-77
2024/01/20 11:51:53;;;;;;;9.38;6.72;;;16.20;74.10;;;;;;5045888;28;20481;-77
2024/01/20 11:54:20;;;;;;;9.48;7.03;;;14.00;73.30;;;;;;5048045;28;20214;-76
2024/01/20 11:56:47;;;;;;;13.52;6.70;;;11.60;77.50;;;;;;5046479;28;20209;-76
2024/01/20 11:59:14;;;;;;;11.02;7.03;;;10.30;80.70;;;;;;5044883;28;20226;-76
2024/01/20 12:01:42;;;;;;;11.70;6.78;;;10.10;82.40;;;;;;5048940;28;20608;-77
2024/01/20 12:04:09;;;;;;;7.25;5.70;;;9.40;84.30;;;;;;5044172;28;20702;-77
2024/01/20 12:06:36;;;;;;;16.70;9.05;;;9.40;84.40;;;;;;5046944;28;20208;-76
2024/01/20 12:09:03;;;;;;;17.98;7.18;;;8.90;84.20;;;;;;5047119;28;20207;-76
2024/01/20 12:11:30;;;;;;;7.95;5.57;;;8.40;86.10;;;;;;5046815;28;20673;-77
2024/01/20 12:13:57;;;;;;;13.60;6.53;;;8.60;85.60;;;;;;5045829;28;20212;-77
2024/01/20 12:16:25;;;;;;;6.95;6.20;;;8.30;86.20;;;;;;5047533;28;20528;-76
2024/01/20 12:18:53;;;;;;;5.95;5.18;;;7.90;86.50;;;;;;5050101;28;20249;-76
2024/01/20 12:21:20;;;;;;;7.90;5.40;;;7.20;87.20;;;;;;5050801;28;20221;-76
2024/01/20 12:23:47;;;;;;;11.70;6.05;;;6.20;88.40;;;;;;5051270;28;20209;-76
2024/01/20 12:26:14;;;;;;;8.88;5.97;;;5.70;90.90;;;;;;5050334;28;20206;-77
2024/01/20 12:28:42;;;;;;;12.57;6.35;;;6.20;91.10;;;;;;5052036;28;20549;-77
2024/01/20 12:31:09;;;;;;;7.85;5.50;;;6.30;90.50;;;;;;5049732;28;20210;-76
2024/01/20 12:33:36;;;;;;;9.05;6.55;;;6.30;91.10;;;;;;5053337;28;20225;-77
2024/01/20 12:36:04;;;;;;;9.80;6.90;;;6.00;91.20;;;;;;5052098;28;20212;-77
2024/01/20 12:38:31;;;;;;;9.77;4.80;;;5.70;92.00;;;;;;5052908;28;20220;-79
2024/01/20 12:40:58;;;;;;;7.75;5.38;;;5.30;92.40;;;;;;5052138;28;20205;-77
2024/01/20 12:43:24;;;;;;;11.90;6.18;;;5.30;92.60;;;;;;5045262;28;20276;-77
2024/01/20 12:45:51;;;;;;;8.63;5.82;;;5.20;93.30;;;;;;5053321;28;20289;-77